Time;durP1;ratioP1;P1;durP2;ratioP2;P2;SDS_P1;SDS_P2;PMS_P1;PMS_P2;Temp;Humidity;BMP_temperature;BMP_pressure;BME280_temperature;BME280_humidity;BME280_pressure;Samples;Min_cycle;Max_cycle;Signal;HPM_P1;HPM_P2
2022/12/12 00:00:05;;;;;;;39.93;22.43;;;-5.60;99.90;;;;;;4976904;28;20180;-81
2022/12/12 00:02:31;;;;;;;38.70;20.90;;;-5.70;99.90;;;;;;4976791;28;20234;-79
2022/12/12 00:04:57;;;;;;;42.87;23.03;;;-5.70;80.90;;;;;;4975168;28;20185;-80
2022/12/12 00:07:22;;;;;;;37.73;21.07;;;-5.80;99.90;;;;;;4974484;28;20601;-79
2022/12/12 00:09:48;;;;;;;37.93;20.37;;;-5.90;99.90;;;;;;4977586;28;20280;-79
2022/12/12 00:12:14;;;;;;;43.67;24.07;;;-5.80;99.90;;;;;;4974990;28;20181;-81
2022/12/12 00:14:39;;;;;;;46.43;24.40;;;-5.80;99.90;;;;;;4978886;28;20199;-78
2022/12/12 00:17:05;;;;;;;42.77;21.90;;;-5.70;99.90;;;;;;4976062;28;20188;-78
2022/12/12 00:19:30;;;;;;;40.60;21.33;;;-5.90;99.90;;;;;;4976207;28;21228;-78
2022/12/12 00:21:56;;;;;;;41.00;20.93;;;-5.90;99.90;;;;;;4975952;28;20242;-79
2022/12/12 00:24:22;;;;;;;39.53;21.13;;;-6.00;99.90;;;;;;4977256;28;20247;-77
2022/12/12 00:26:47;;;;;;;35.80;20.40;;;-6.00;99.90;;;;;;4975125;28;20184;-79
2022/12/12 00:29:13;;;;;;;35.03;20.03;;;-6.00;99.90;;;;;;4976363;28;21117;-79
2022/12/12 00:31:38;;;;;;;38.20;20.13;;;-6.10;99.90;;;;;;4976035;28;20216;-80
2022/12/12 00:34:04;;;;;;;36.87;19.90;;;-6.10;99.90;;;;;;4974902;28;20299;-77
2022/12/12 00:36:30;;;;;;;39.40;20.60;;;-6.00;1.00;;;;;;4975783;28;20189;-79
2022/12/12 00:38:57;;;;;;;36.67;20.10;;;-6.00;1.00;;;;;;4974627;28;20212;-79
2022/12/12 00:41:23;;;;;;;43.13;21.23;;;-5.90;99.90;;;;;;4977755;28;20255;-79
2022/12/12 00:43:49;;;;;;;43.43;22.97;;;-6.10;99.90;;;;;;4976803;28;20208;-77
2022/12/12 00:46:17;;;;;;;42.40;22.53;;;-6.20;99.90;;;;;;4977010;28;20200;-79
2022/12/12 00:48:43;;;;;;;43.77;21.80;;;-6.20;99.90;;;;;;4975940;28;20188;-79
2022/12/12 00:51:15;;;;;;;42.97;22.67;;;-6.20;1.00;;;;;;4975649;28;20188;-79
2022/12/12 00:53:41;;;;;;;40.83;22.10;;;-6.20;1.00;;;;;;4974345;28;20533;-79
2022/12/12 00:56:07;;;;;;;43.47;22.40;;;-6.20;1.00;;;;;;4977230;28;20258;-78
2022/12/12 00:58:33;;;;;;;48.53;24.30;;;-6.20;1.00;;;;;;4974365;28;20231;-79
2022/12/12 01:01:05;;;;;;;55.77;28.47;;;-6.10;43.20;;;;;;4976712;28;20192;-78
2022/12/12 01:03:36;;;;;;;45.93;24.67;;;-6.00;73.80;;;;;;4975507;28;20208;-79
2022/12/12 01:06:02;;;;;;;39.53;21.87;;;-6.00;99.90;;;;;;4977079;28;20939;-79
2022/12/12 01:08:28;;;;;;;42.73;21.80;;;-5.90;99.90;;;;;;4977430;28;20877;-79
2022/12/12 01:10:54;;;;;;;43.83;22.73;;;-5.90;99.90;;;;;;4979271;28;20214;-78
2022/12/12 01:13:20;;;;;;;41.47;22.50;;;-5.80;99.90;;;;;;4980828;28;20208;-78
2022/12/12 01:15:46;;;;;;;42.70;21.33;;;-5.80;99.90;;;;;;4986508;28;20238;-78
2022/12/12 01:18:12;;;;;;;42.73;23.40;;;-5.90;99.90;;;;;;4979563;28;20219;-78
2022/12/12 01:20:40;;;;;;;45.73;22.63;;;-5.80;99.90;;;;;;4978855;28;20670;-78
2022/12/12 01:23:06;;;;;;;44.10;23.20;;;-5.70;99.90;;;;;;4980611;28;20219;-78
2022/12/12 01:25:31;;;;;;;45.83;23.10;;;-5.70;99.90;;;;;;4979548;28;20189;-79
2022/12/12 01:27:58;;;;;;;45.27;23.30;;;-5.80;99.90;;;;;;4981655;28;20196;-77
2022/12/12 01:30:24;;;;;;;45.10;24.00;;;-5.80;99.90;;;;;;4978954;28;20192;-80
2022/12/12 01:32:50;;;;;;;47.83;23.07;;;-5.80;99.90;;;;;;4978543;28;20291;-79
2022/12/12 01:35:17;;;;;;;42.47;22.73;;;-5.80;99.90;;;;;;4979078;28;20662;-79
2022/12/12 01:37:43;;;;;;;43.33;22.60;;;-5.80;99.90;;;;;;4979689;28;20216;-78
2022/12/12 01:40:19;;;;;;;40.90;22.37;;;-5.70;99.90;;;;;;4979583;28;20189;-77
2022/12/12 01:42:45;;;;;;;42.77;22.63;;;-5.70;99.90;;;;;;4979618;28;21385;-78
2022/12/12 01:45:48;;;;;;;40.40;21.80;;;-5.70;99.90;;;;;;4979717;28;20214;-78
2022/12/12 01:48:14;;;;;;;50.13;23.20;;;-5.70;99.90;;;;;;4980158;28;20280;-80
2022/12/12 01:50:42;;;;;;;46.43;22.57;;;-5.40;1.00;;;;;;4980369;28;20808;-79
2022/12/12 01:53:08;;;;;;;43.73;22.47;;;-5.50;99.90;;;;;;4979595;28;20209;-78
2022/12/12 01:55:34;;;;;;;44.03;22.20;;;-5.30;99.90;;;;;;4978996;28;20211;-79
2022/12/12 01:58:00;;;;;;;44.33;22.80;;;-5.20;99.90;;;;;;4977952;28;20220;-78
2022/12/12 02:00:26;;;;;;;60.00;29.00;;;-5.20;99.90;;;;;;4979622;28;20186;-78
2022/12/12 02:02:54;;;;;;;52.70;28.10;;;-5.10;1.00;;;;;;4977910;28;20216;-78
2022/12/12 02:05:32;;;;;;;44.50;23.80;;;-5.00;1.00;;;;;;4978064;28;20268;-79
2022/12/12 02:08:01;;;;;;;47.23;23.47;;;-5.00;99.90;;;;;;4979752;28;20263;-78
2022/12/12 02:10:26;;;;;;;43.13;24.40;;;-5.00;99.90;;;;;;4978614;28;20189;-77
2022/12/12 02:13:00;;;;;;;49.47;24.43;;;-5.10;99.90;;;;;;4979137;28;20215;-78
2022/12/12 02:15:37;;;;;;;46.03;22.93;;;-5.10;1.00;;;;;;4976613;28;20280;-80
2022/12/12 02:18:10;;;;;;;44.23;22.47;;;-5.20;1.00;;;;;;4979500;28;20208;-80
2022/12/12 02:21:18;;;;;;;39.27;21.17;;;-5.20;1.00;;;;;;4978986;28;20215;-79
2022/12/12 02:24:21;;;;;;;37.37;20.67;;;-5.00;1.00;;;;;;4978652;28;20205;-78
2022/12/12 02:27:06;;;;;;;41.73;21.30;;;-4.90;1.00;;;;;;4972806;28;20211;-77
2022/12/12 02:29:46;;;;;;;43.93;22.70;;;-5.00;1.00;;;;;;4979004;28;20192;-79
2022/12/12 02:32:40;;;;;;;40.20;21.20;;;-4.80;1.00;;;;;;4992858;28;20207;-80
2022/12/12 02:35:34;;;;;;;43.57;22.23;;;-4.70;1.00;;;;;;4981863;28;20213;-81
2022/12/12 02:38:26;;;;;;;41.83;21.80;;;-4.20;1.00;;;;;;4974098;28;20251;-81
2022/12/12 02:41:00;;;;;;;46.10;22.50;;;-4.50;1.00;;;;;;4978876;28;20191;-81
2022/12/12 02:44:06;;;;;;;44.87;22.40;;;-4.50;99.90;;;;;;4979715;28;20218;-79
2022/12/12 02:46:45;;;;;;;42.70;23.60;;;-4.50;90.00;;;;;;4975698;28;20208;-80
2022/12/12 02:49:25;;;;;;;41.03;21.67;;;-4.50;21.00;;;;;;4986707;28;20564;-81
2022/12/12 02:51:52;;;;;;;39.70;21.13;;;-4.50;55.30;;;;;;4977096;28;20185;-80
2022/12/12 02:54:20;;;;;;;38.53;21.67;;;-4.40;99.90;;;;;;4978573;28;20212;-80
2022/12/12 02:56:56;;;;;;;42.03;22.20;;;-4.50;92.70;;;;;;4976450;28;20721;-79
2022/12/12 02:59:35;;;;;;;43.40;21.10;;;-4.40;1.00;;;;;;4979002;28;20216;-79
2022/12/12 03:02:20;;;;;;;34.70;20.00;;;-4.60;1.00;;;;;;4992612;28;20215;-80
2022/12/12 03:08:03;;;;;;;40.83;21.27;;;-4.80;1.00;;;;;;4979115;28;20274;-80
2022/12/12 03:10:47;;;;;;;40.93;21.13;;;-5.00;1.00;;;;;;4977065;28;20204;-80
2022/12/12 03:13:16;;;;;;;41.47;21.67;;;-5.00;1.00;;;;;;4985538;28;20762;-80
2022/12/12 03:15:56;;;;;;;45.60;21.70;;;-5.20;1.00;;;;;;4979805;28;20320;-79
2022/12/12 03:18:37;;;;;;;40.83;21.27;;;-5.20;1.00;;;;;;4978527;28;20217;-80
2022/12/12 03:21:14;;;;;;;35.00;19.23;;;-5.30;99.90;;;;;;4985987;28;20646;-79
2022/12/12 03:23:44;;;;;;;43.80;22.00;;;-5.30;99.90;;;;;;4978094;28;20247;-80
2022/12/12 03:26:15;;;;;;;41.57;21.30;;;-5.30;99.90;;;;;;4984541;28;20228;-79
2022/12/12 03:29:06;;;;;;;45.03;22.47;;;-5.30;99.90;;;;;;4978201;28;20192;-79
2022/12/12 03:31:36;;;;;;;41.90;22.00;;;-5.20;1.00;;;;;;4978056;28;20522;-81
2022/12/12 03:34:07;;;;;;;40.60;22.87;;;-5.20;1.00;;;;;;4976324;28;20244;-79
2022/12/12 03:36:53;;;;;;;45.30;23.27;;;-5.10;1.00;;;;;;4977710;28;20189;-77
2022/12/12 03:39:25;;;;;;;45.23;21.87;;;-5.10;1.00;;;;;;4976197;28;20235;-81
2022/12/12 03:41:58;;;;;;;41.77;22.47;;;-5.10;1.00;;;;;;4992507;28;20844;-79
2022/12/12 03:44:33;;;;;;;39.70;21.87;;;-4.90;1.00;;;;;;4977374;28;20790;-78
2022/12/12 03:47:22;;;;;;;42.33;22.60;;;-4.90;1.00;;;;;;4978624;28;20207;-80
2022/12/12 03:50:00;;;;;;;44.70;23.33;;;-4.90;1.00;;;;;;4977639;28;20189;-79
2022/12/12 03:52:48;;;;;;;41.33;22.60;;;-4.70;1.00;;;;;;4983720;28;20207;-80
2022/12/12 03:55:23;;;;;;;43.77;22.70;;;-4.80;1.00;;;;;;4977457;28;20176;-79
2022/12/12 03:57:58;;;;;;;45.23;23.43;;;-4.70;1.00;;;;;;4978128;28;20208;-77
2022/12/12 04:00:24;;;;;;;42.27;24.50;;;-4.70;1.00;;;;;;4976443;28;20189;-80
2022/12/12 04:02:56;;;;;;;43.97;23.50;;;-4.70;1.00;;;;;;4975441;28;20896;-80
2022/12/12 04:05:38;;;;;;;44.27;23.83;;;-4.60;1.00;;;;;;4983500;28;20192;-79
2022/12/12 04:08:11;;;;;;;47.87;24.43;;;-4.50;1.00;;;;;;4977494;28;20275;-80
2022/12/12 04:14:03;;;;;;;46.53;23.67;;;-4.30;1.00;;;;;;4979053;28;20270;-79
2022/12/12 04:16:42;;;;;;;45.27;23.57;;;-4.20;99.90;;;;;;4976258;28;20295;-79
2022/12/12 04:23:14;;;;;;;43.97;22.73;;;-4.30;99.90;;;;;;4983620;28;20235;-79
2022/12/12 04:25:27;;;;;;;41.30;23.90;;;-4.30;99.90;;;;;;4961014;28;20192;-77
2022/12/12 04:28:00;;;;;;;43.83;23.23;;;-4.30;45.30;;;;;;4974622;28;20211;-80
2022/12/12 04:30:28;;;;;;;42.23;22.73;;;-4.20;99.90;;;;;;4975672;28;20218;-78
2022/12/12 04:33:00;;;;;;;39.67;22.93;;;-4.10;84.00;;;;;;4976219;28;20303;-80
2022/12/12 04:35:42;;;;;;;47.13;24.27;;;-4.30;1.00;;;;;;4975764;28;20674;-80
2022/12/12 04:38:18;;;;;;;41.17;23.80;;;-4.30;1.00;;;;;;4977215;28;20289;-78
2022/12/12 04:40:46;;;;;;;44.33;24.73;;;-4.40;1.00;;;;;;4977481;28;20272;-78
2022/12/12 04:43:19;;;;;;;41.57;24.00;;;-4.40;1.00;;;;;;4977564;28;20211;-79
2022/12/12 04:49:01;;;;;;;43.67;23.63;;;-4.30;38.60;;;;;;4975553;28;20210;-77
2022/12/12 04:51:40;;;;;;;45.80;23.13;;;-4.50;99.90;;;;;;4976762;28;20195;-79
2022/12/12 04:54:25;;;;;;;44.90;23.40;;;-4.50;62.10;;;;;;4975064;28;20254;-79
2022/12/12 04:56:55;;;;;;;41.80;22.83;;;-4.60;21.80;;;;;;4975736;28;20212;-79
2022/12/12 04:59:21;;;;;;;43.10;23.10;;;-4.60;99.90;;;;;;4976483;28;20208;-79
2022/12/12 05:02:07;;;;;;;50.40;24.70;;;-4.60;99.90;;;;;;4975293;28;20212;-79
2022/12/12 05:04:41;;;;;;;45.50;23.47;;;-4.80;76.60;;;;;;4973952;28;20209;-78
2022/12/12 05:07:12;;;;;;;45.50;24.37;;;-4.80;96.10;;;;;;4975586;28;20184;-78
2022/12/12 05:09:38;;;;;;;42.00;23.27;;;-4.80;99.90;;;;;;4975219;28;20192;-79
2022/12/12 05:12:04;;;;;;;39.87;23.53;;;-4.80;99.90;;;;;;4975532;28;20183;-78
2022/12/12 05:14:30;;;;;;;44.50;23.77;;;-4.80;99.90;;;;;;4976922;28;20622;-79
2022/12/12 05:17:02;;;;;;;48.00;24.03;;;-4.40;99.90;;;;;;4975372;28;20203;-80
2022/12/12 05:19:27;;;;;;;47.50;24.93;;;-4.80;1.00;;;;;;4984671;28;20212;-79
2022/12/12 05:21:53;;;;;;;48.60;23.17;;;-4.60;1.00;;;;;;4975878;28;20296;-80
2022/12/12 05:24:18;;;;;;;41.63;23.50;;;-4.60;1.00;;;;;;4976901;28;20539;-80
2022/12/12 05:26:44;;;;;;;43.37;24.60;;;-4.70;1.00;;;;;;4975837;28;20220;-79
2022/12/12 05:29:10;;;;;;;45.27;24.17;;;-4.70;99.90;;;;;;4974292;28;20203;-78
2022/12/12 05:31:36;;;;;;;47.60;25.60;;;-4.80;99.90;;;;;;4975828;28;20184;-78
2022/12/12 05:34:02;;;;;;;43.50;23.20;;;-4.90;1.00;;;;;;4977890;28;20706;-79
2022/12/12 05:36:28;;;;;;;47.90;25.37;;;-4.90;1.00;;;;;;4977003;28;20247;-80
2022/12/12 05:38:53;;;;;;;41.87;22.27;;;-4.80;1.00;;;;;;4974119;28;20847;-80
2022/12/12 05:41:19;;;;;;;44.67;23.50;;;-4.70;1.00;;;;;;4973053;28;20548;-78
2022/12/12 05:43:45;;;;;;;46.40;24.33;;;-4.60;1.00;;;;;;4976896;28;20717;-78
2022/12/12 05:46:32;;;;;;;44.13;23.50;;;-4.60;1.00;;;;;;4975431;28;20696;-77
2022/12/12 05:48:57;;;;;;;41.00;22.63;;;-4.40;1.00;;;;;;4992258;28;20188;-77
2022/12/12 05:51:23;;;;;;;42.97;22.93;;;-4.40;1.00;;;;;;4974492;28;20603;-77
2022/12/12 05:53:48;;;;;;;51.53;25.20;;;-4.40;99.90;;;;;;4974837;28;20714;-77
2022/12/12 05:56:14;;;;;;;53.00;25.93;;;-4.30;99.90;;;;;;4976599;28;20467;-77
2022/12/12 05:58:41;;;;;;;51.63;27.47;;;-3.70;99.90;;;;;;4980858;28;20264;-79
2022/12/12 06:01:07;;;;;;;53.37;26.83;;;-3.70;1.00;;;;;;4978060;28;20180;-77
2022/12/12 06:03:32;;;;;;;45.63;24.73;;;-4.20;1.00;;;;;;4981947;28;20202;-77
2022/12/12 06:05:58;;;;;;;41.80;24.27;;;-4.10;99.90;;;;;;4980101;28;20214;-78
2022/12/12 06:08:24;;;;;;;53.10;28.53;;;-4.30;99.90;;;;;;4977844;28;20185;-78
2022/12/12 06:10:50;;;;;;;48.47;25.17;;;-4.10;25.90;;;;;;4986004;28;20188;-77
2022/12/12 06:13:15;;;;;;;45.10;25.17;;;-4.10;1.00;;;;;;4979760;28;20204;-76
2022/12/12 06:15:41;;;;;;;51.13;26.63;;;-3.80;1.00;;;;;;4980511;28;21222;-78
2022/12/12 06:18:11;;;;;;;43.00;24.03;;;-3.90;1.00;;;;;;4979266;28;20209;-78
2022/12/12 06:20:36;;;;;;;40.30;22.73;;;-3.90;1.00;;;;;;4976682;28;20706;-77
2022/12/12 06:23:03;;;;;;;44.20;22.83;;;-3.80;1.00;;;;;;4978374;28;20216;-80
2022/12/12 06:25:29;;;;;;;42.50;23.07;;;-3.90;1.00;;;;;;4979374;28;20250;-78
2022/12/12 06:27:55;;;;;;;44.07;22.23;;;-3.70;1.00;;;;;;4975287;28;20189;-78
2022/12/12 06:30:21;;;;;;;43.20;23.87;;;-3.80;1.00;;;;;;4977562;28;20272;-77
2022/12/12 06:32:46;;;;;;;42.80;23.63;;;-3.90;1.00;;;;;;4980101;28;20253;-78
2022/12/12 06:35:12;;;;;;;37.40;21.70;;;-3.80;1.00;;;;;;4977930;28;20647;-78
2022/12/12 06:37:39;;;;;;;40.10;23.03;;;-3.80;1.00;;;;;;4980267;28;20248;-78
2022/12/12 06:40:05;;;;;;;42.27;23.07;;;-3.80;1.00;;;;;;4978356;28;20220;-79
2022/12/12 06:42:31;;;;;;;41.73;22.27;;;-3.70;1.00;;;;;;4978234;28;20255;-78
2022/12/12 06:44:57;;;;;;;42.70;24.07;;;-3.70;1.00;;;;;;4990692;28;20185;-78
2022/12/12 06:47:23;;;;;;;42.73;23.27;;;-3.80;1.00;;;;;;4979405;28;20227;-78
2022/12/12 06:49:48;;;;;;;41.53;22.70;;;-3.80;1.00;;;;;;4977650;28;20193;-77
2022/12/12 06:52:14;;;;;;;43.50;24.87;;;-3.70;1.00;;;;;;4978086;28;20188;-80
2022/12/12 06:54:40;;;;;;;47.30;23.53;;;-3.70;1.00;;;;;;4976706;28;20193;-77
2022/12/12 06:57:05;;;;;;;43.23;23.63;;;-3.70;1.00;;;;;;4978046;28;20192;-78
2022/12/12 06:59:31;;;;;;;45.37;25.37;;;-3.70;1.00;;;;;;4978973;28;20687;-79
2022/12/12 07:01:56;;;;;;;44.30;23.73;;;-3.60;1.00;;;;;;4978380;28;20223;-78
2022/12/12 07:04:22;;;;;;;44.33;22.67;;;-3.50;1.00;;;;;;4977642;28;20238;-78
2022/12/12 07:06:48;;;;;;;43.97;24.10;;;-3.50;1.00;;;;;;4977255;28;20188;-77
2022/12/12 07:09:13;;;;;;;43.23;23.97;;;-3.40;1.00;;;;;;4978203;28;20215;-78
2022/12/12 07:11:40;;;;;;;41.53;23.20;;;-3.60;1.00;;;;;;4977993;28;20212;-78
2022/12/12 07:14:06;;;;;;;44.70;22.77;;;-3.70;1.00;;;;;;4970959;28;20255;-77
2022/12/12 07:16:32;;;;;;;42.97;22.70;;;-3.60;1.00;;;;;;4973266;28;20208;-78
2022/12/12 07:18:58;;;;;;;44.30;24.53;;;-3.70;1.00;;;;;;4975951;28;20220;-78
2022/12/12 07:21:24;;;;;;;40.50;22.10;;;-3.70;1.00;;;;;;4963940;28;20193;-79
2022/12/12 07:23:50;;;;;;;46.00;23.93;;;-3.70;1.00;;;;;;4976504;28;20274;-78
2022/12/12 07:26:19;;;;;;;43.50;22.83;;;-4.20;1.00;;;;;;4977089;28;20177;-78
2022/12/12 07:28:44;;;;;;;43.23;23.20;;;-3.60;1.00;;;;;;4975028;28;20571;-77
2022/12/12 07:31:15;;;;;;;41.77;23.33;;;-3.60;1.00;;;;;;4976780;28;20193;-78
2022/12/12 07:33:41;;;;;;;47.40;25.23;;;-3.60;1.00;;;;;;4975863;28;20227;-79
2022/12/12 07:36:07;;;;;;;47.20;26.50;;;-3.50;1.00;;;;;;4975858;28;20220;-78
2022/12/12 07:38:33;;;;;;;41.93;23.67;;;-3.50;1.00;;;;;;4977420;28;20210;-79
2022/12/12 07:41:08;;;;;;;40.90;22.10;;;-3.50;1.00;;;;;;4978156;28;20658;-78
2022/12/12 07:43:35;;;;;;;44.30;23.77;;;-3.50;1.00;;;;;;4984232;28;20207;-78
2022/12/12 07:46:01;;;;;;;43.53;22.90;;;-3.50;1.00;;;;;;4977369;28;20196;-78
2022/12/12 07:48:27;;;;;;;41.50;23.10;;;-3.70;1.00;;;;;;4975869;28;20239;-78
2022/12/12 07:50:53;;;;;;;43.67;24.33;;;-3.40;1.00;;;;;;4974965;28;20192;-78
2022/12/12 07:53:19;;;;;;;46.03;24.50;;;-3.50;1.00;;;;;;4975744;28;20211;-78
2022/12/12 07:55:44;;;;;;;44.73;23.93;;;-3.40;1.00;;;;;;4977739;28;20192;-78
2022/12/12 07:58:10;;;;;;;41.17;24.10;;;-3.50;1.00;;;;;;4981570;28;20303;-79
2022/12/12 08:00:36;;;;;;;42.37;23.90;;;-3.70;1.00;;;;;;4972994;28;20238;-78
2022/12/12 08:03:01;;;;;;;43.07;23.13;;;-3.40;1.00;;;;;;4974796;28;20219;-78
2022/12/12 08:05:28;;;;;;;40.80;23.53;;;-3.50;1.00;;;;;;4976547;28;20192;-79
2022/12/12 08:07:53;;;;;;;44.43;23.83;;;-3.40;1.00;;;;;;4975831;28;20568;-78
2022/12/12 08:10:19;;;;;;;41.97;23.10;;;-3.20;1.00;;;;;;4973562;28;20287;-79
2022/12/12 08:12:45;;;;;;;41.73;23.93;;;-3.20;1.00;;;;;;4974267;28;20216;-78
2022/12/12 08:15:15;;;;;;;41.17;22.53;;;-3.20;1.00;;;;;;4976560;28;20191;-78
2022/12/12 08:17:42;;;;;;;43.30;23.07;;;-3.10;1.00;;;;;;4975745;28;20597;-79
2022/12/12 08:20:08;;;;;;;39.03;22.33;;;-3.00;1.00;;;;;;4969571;28;20343;-79
2022/12/12 08:22:34;;;;;;;40.83;22.90;;;-3.00;1.00;;;;;;4969171;28;20250;-79
2022/12/12 08:25:00;;;;;;;39.00;22.77;;;-3.00;1.00;;;;;;4973469;28;20686;-78
2022/12/12 08:27:26;;;;;;;43.13;29.00;;;-3.00;1.00;;;;;;4973709;28;20306;-79
2022/12/12 08:29:52;;;;;;;46.27;26.87;;;-3.00;1.00;;;;;;4975007;28;21123;-79
2022/12/12 08:32:18;;;;;;;42.67;24.80;;;-2.90;1.00;;;;;;4973158;28;20212;-79
2022/12/12 08:34:44;;;;;;;42.30;25.40;;;-2.90;1.00;;;;;;4970383;28;20199;-79
2022/12/12 08:37:10;;;;;;;39.23;22.83;;;-2.50;1.00;;;;;;4975246;28;20208;-79
2022/12/12 08:39:36;;;;;;;37.83;22.47;;;-2.80;99.90;;;;;;4975517;28;20306;-78
2022/12/12 08:42:03;;;;;;;40.43;21.43;;;-2.70;99.90;;;;;;4972276;28;21078;-79
2022/12/12 08:44:28;;;;;;;36.20;21.50;;;-2.60;99.90;;;;;;4973763;28;20211;-78
2022/12/12 08:46:54;;;;;;;33.93;20.80;;;-2.60;99.90;;;;;;4973783;28;20200;-79
2022/12/12 08:49:20;;;;;;;38.17;21.60;;;-2.80;99.90;;;;;;4973197;28;20191;-78
2022/12/12 08:51:45;;;;;;;40.80;22.10;;;-2.70;99.90;;;;;;4974761;28;20192;-78
2022/12/12 08:54:12;;;;;;;36.27;21.57;;;-2.60;99.90;;;;;;4975818;28;20347;-78
2022/12/12 08:56:38;;;;;;;36.03;20.77;;;-2.60;99.90;;;;;;4973036;28;20657;-78
2022/12/12 08:59:04;;;;;;;41.10;21.90;;;-2.50;99.90;;;;;;4978791;28;20250;-78
2022/12/12 09:01:29;;;;;;;35.60;21.20;;;-2.10;99.90;;;;;;4973965;28;20220;-79
2022/12/12 09:03:57;;;;;;;35.10;21.50;;;-2.70;99.90;;;;;;4975746;28;20252;-79
2022/12/12 09:06:24;;;;;;;37.17;21.17;;;-2.60;99.90;;;;;;4991390;28;20184;-79
2022/12/12 09:08:50;;;;;;;36.93;21.57;;;-2.40;99.90;;;;;;4974099;28;20242;-80
2022/12/12 09:11:16;;;;;;;38.90;21.80;;;-2.30;99.90;;;;;;4973229;28;20197;-78
2022/12/12 09:13:42;;;;;;;33.40;19.97;;;-2.30;99.90;;;;;;4974652;28;20223;-79
2022/12/12 09:16:09;;;;;;;34.17;20.23;;;-2.40;99.90;;;;;;4972736;28;20237;-78
2022/12/12 09:18:36;;;;;;;35.57;20.27;;;-2.30;99.90;;;;;;4974303;28;20286;-77
2022/12/12 09:21:02;;;;;;;35.97;20.70;;;-2.30;99.90;;;;;;4972886;28;20268;-79
2022/12/12 09:23:28;;;;;;;35.47;20.13;;;-2.00;99.90;;;;;;4971974;28;20224;-79
2022/12/12 09:25:53;;;;;;;31.50;19.90;;;-2.30;99.90;;;;;;4972866;28;20191;-78
2022/12/12 09:28:21;;;;;;;35.77;20.37;;;-2.30;99.90;;;;;;4974654;28;20185;-78
2022/12/12 09:30:47;;;;;;;33.90;19.00;;;-2.40;99.90;;;;;;4977086;28;20188;-77
2022/12/12 09:33:14;;;;;;;37.03;21.53;;;-2.40;99.90;;;;;;4979669;28;20239;-79
2022/12/12 09:35:39;;;;;;;36.90;20.77;;;-2.30;99.90;;;;;;4980588;28;20279;-79
2022/12/12 09:38:05;;;;;;;35.03;21.17;;;-2.40;99.90;;;;;;4976931;28;20343;-79
2022/12/12 09:40:52;;;;;;;32.83;19.63;;;-2.20;99.90;;;;;;4980566;28;20417;-77
2022/12/12 09:43:21;;;;;;;36.03;19.57;;;-2.10;99.90;;;;;;4980483;28;20207;-78
2022/12/12 09:45:47;;;;;;;33.03;20.03;;;-2.10;99.90;;;;;;4978615;28;20189;-78
2022/12/12 09:48:26;;;;;;;32.00;19.10;;;-2.10;99.90;;;;;;4980297;28;20192;-79
2022/12/12 09:50:52;;;;;;;33.80;20.63;;;-2.10;99.90;;;;;;4977537;28;20599;-78
2022/12/12 09:53:21;;;;;;;36.17;20.47;;;-2.10;99.90;;;;;;4976916;28;20244;-79
2022/12/12 09:55:50;;;;;;;35.13;20.37;;;-2.10;99.90;;;;;;4977526;28;20193;-78
2022/12/12 09:58:43;;;;;;;36.50;22.73;;;-2.10;99.90;;;;;;4977377;28;20200;-78
2022/12/12 10:01:41;;;;;;;39.47;22.03;;;-2.00;99.90;;;;;;4973317;28;20191;-78
2022/12/12 10:04:31;;;;;;;39.87;22.53;;;-1.80;99.90;;;;;;4977611;28;20212;-78
2022/12/12 10:07:16;;;;;;;37.00;22.37;;;-1.80;99.90;;;;;;4978555;28;20189;-78
2022/12/12 10:09:53;;;;;;;32.27;20.50;;;-1.70;99.90;;;;;;4979899;28;20227;-78
2022/12/12 10:12:20;;;;;;;35.77;20.83;;;-1.60;99.90;;;;;;4984806;28;20193;-78
2022/12/12 10:14:52;;;;;;;35.77;21.53;;;-1.50;99.90;;;;;;4980458;28;20192;-78
2022/12/12 10:17:47;;;;;;;32.83;19.77;;;-1.70;99.90;;;;;;4976192;28;20195;-79
2022/12/12 10:20:29;;;;;;;34.77;20.93;;;-1.60;99.90;;;;;;4977262;28;20284;-78
2022/12/12 10:23:37;;;;;;;34.33;20.17;;;-1.30;99.90;;;;;;4979383;28;20235;-78
2022/12/12 10:26:16;;;;;;;35.20;20.40;;;-1.50;99.90;;;;;;4970508;28;20612;-78
2022/12/12 10:28:42;;;;;;;32.53;20.13;;;-1.30;99.90;;;;;;4982810;28;20192;-79
2022/12/12 10:31:36;;;;;;;35.20;21.00;;;-1.30;99.90;;;;;;4977961;28;20276;-79
2022/12/12 10:34:11;;;;;;;42.00;21.87;;;-1.30;99.90;;;;;;4984635;28;20216;-78
2022/12/12 10:36:48;;;;;;;35.70;20.97;;;-1.30;99.90;;;;;;4976239;28;20276;-78
2022/12/12 10:39:43;;;;;;;35.28;26.55;;;-1.20;99.90;;;;;;4974342;28;20452;-77
2022/12/12 10:42:26;;;;;;;35.47;21.20;;;-1.20;47.30;;;;;;4974285;28;20185;-77
2022/12/12 10:45:00;;;;;;;32.17;19.37;;;-1.20;28.30;;;;;;4977816;28;20176;-78
2022/12/12 10:47:26;;;;;;;30.87;18.07;;;-1.20;32.00;;;;;;4976885;28;20203;-78
2022/12/12 10:50:01;;;;;;;34.43;19.63;;;-1.20;35.00;;;;;;4979241;28;21334;-78
2022/12/12 10:52:26;;;;;;;32.67;19.10;;;-1.30;39.80;;;;;;4975824;28;20192;-78
2022/12/12 10:54:58;;;;;;;31.47;19.97;;;-1.30;38.10;;;;;;4969979;28;20241;-77
2022/12/12 10:57:27;;;;;;;31.60;18.90;;;-1.20;31.80;;;;;;4973926;28;20663;-77
2022/12/12 10:59:57;;;;;;;31.30;19.47;;;-1.30;32.30;;;;;;4971116;28;20682;-76
2022/12/12 11:02:37;;;;;;;31.80;18.97;;;-1.30;32.80;;;;;;4983871;28;20212;-77
2022/12/12 11:05:13;;;;;;;27.80;18.20;;;-1.40;35.00;;;;;;4977892;28;20180;-77
2022/12/12 11:07:43;;;;;;;31.30;18.43;;;-1.50;44.10;;;;;;4978992;28;20187;-77
2022/12/12 11:10:23;;;;;;;31.07;18.13;;;-1.50;49.00;;;;;;4977314;28;20189;-77
2022/12/12 11:13:11;;;;;;;31.60;17.93;;;-1.40;49.50;;;;;;4975070;28;20281;-76
2022/12/12 11:15:48;;;;;;;34.33;19.50;;;-1.30;46.10;;;;;;4966441;28;20189;-77
2022/12/12 11:18:20;;;;;;;31.03;18.43;;;-1.40;65.40;;;;;;4974271;28;20508;-76
2022/12/12 11:21:09;;;;;;;32.17;19.47;;;-1.30;40.70;;;;;;4972827;28;20184;-77
2022/12/12 11:23:38;;;;;;;35.20;20.17;;;-1.40;40.40;;;;;;4968797;28;20250;-76
2022/12/12 11:26:17;;;;;;;36.90;22.50;;;-1.40;55.90;;;;;;4976248;28;20294;-77
2022/12/12 11:28:45;;;;;;;35.93;22.10;;;-1.40;58.20;;;;;;4977462;28;20189;-76
2022/12/12 11:31:16;;;;;;;33.80;20.10;;;-0.60;59.30;;;;;;4978558;28;20247;-77
2022/12/12 11:33:48;;;;;;;34.57;20.27;;;-1.40;65.80;;;;;;4978879;28;20212;-77
2022/12/12 11:36:22;;;;;;;33.87;19.67;;;-1.40;64.20;;;;;;4977298;28;20554;-77
2022/12/12 11:38:56;;;;;;;45.60;29.03;;;-1.30;62.50;;;;;;4979519;28;20273;-77
2022/12/12 11:41:22;;;;;;;31.27;18.50;;;-1.30;45.30;;;;;;4978548;28;20189;-77
2022/12/12 11:43:47;;;;;;;32.43;19.07;;;-1.30;40.10;;;;;;4978829;28;20220;-77
2022/12/12 11:46:13;;;;;;;31.17;18.47;;;-1.30;42.90;;;;;;4979034;28;20196;-76
2022/12/12 11:48:50;;;;;;;32.83;18.10;;;-1.30;48.40;;;;;;4975392;28;20196;-77
2022/12/12 11:51:36;;;;;;;31.07;18.27;;;-1.20;34.30;;;;;;4976917;28;20189;-77
2022/12/12 11:54:06;;;;;;;31.60;18.43;;;-1.10;40.40;;;;;;4974979;28;20208;-77
2022/12/12 11:56:41;;;;;;;33.13;19.63;;;-1.10;40.70;;;;;;4981206;28;20262;-79
2022/12/12 11:59:12;;;;;;;32.93;20.27;;;-0.90;42.00;;;;;;4977589;28;20663;-78
2022/12/12 12:01:56;;;;;;;31.03;19.53;;;-0.80;35.40;;;;;;4993867;28;20232;-79
2022/12/12 12:04:47;;;;;;;29.53;18.17;;;-0.60;23.60;;;;;;4975070;28;20678;-82
2022/12/12 12:07:43;;;;;;;28.47;17.47;;;-0.60;16.50;;;;;;4977533;28;20177;-77
2022/12/12 12:10:46;;;;;;;30.40;18.67;;;-0.50;13.70;;;;;;4970186;28;20173;-78
2022/12/12 12:13:36;;;;;;;25.93;16.40;;;-0.50;11.60;;;;;;4968342;28;20239;-77
2022/12/12 12:16:20;;;;;;;30.13;17.60;;;-0.30;5.80;;;;;;4964302;28;20181;-77
2022/12/12 12:19:00;;;;;;;27.70;17.03;;;-0.30;1.60;;;;;;4968682;28;20527;-77
2022/12/12 12:21:51;;;;;;;29.60;18.20;;;-0.30;1.00;;;;;;4975314;28;20215;-77
2022/12/12 12:24:43;;;;;;;29.73;17.70;;;-0.30;1.00;;;;;;4967128;28;20752;-77
2022/12/12 12:27:17;;;;;;;28.03;17.77;;;-0.40;1.00;;;;;;4965534;28;20196;-78
2022/12/12 12:29:58;;;;;;;33.47;20.20;;;-0.30;6.90;;;;;;4963540;28;20188;-77
2022/12/12 12:32:51;;;;;;;37.03;19.70;;;-0.30;5.00;;;;;;4962968;28;20189;-77
2022/12/12 12:35:36;;;;;;;30.63;18.57;;;-0.10;1.00;;;;;;4971056;28;20195;-78
2022/12/12 12:38:39;;;;;;;28.63;18.00;;;-0.40;1.00;;;;;;4968512;28;20780;-78
2022/12/12 12:41:43;;;;;;;28.87;17.63;;;-0.30;1.00;;;;;;4972716;28;20243;-78
2022/12/12 12:44:34;;;;;;;30.40;17.53;;;-0.30;1.00;;;;;;4966926;28;20199;-77
2022/12/12 12:47:28;;;;;;;29.30;17.13;;;-0.50;1.00;;;;;;4970440;28;20200;-77
2022/12/12 12:50:02;;;;;;;33.00;19.83;;;-0.30;1.00;;;;;;4962488;28;20581;-78
2022/12/12 12:52:39;;;;;;;28.30;16.60;;;-0.90;1.00;;;;;;4969407;28;20179;-78
2022/12/12 12:55:13;;;;;;;32.73;18.97;;;-0.20;1.00;;;;;;4967556;28;20580;-77
2022/12/12 12:57:43;;;;;;;26.90;16.97;;;-0.30;1.00;;;;;;4967985;28;20195;-77
2022/12/12 13:00:16;;;;;;;28.17;17.60;;;-0.30;1.00;;;;;;4967422;28;20216;-77
2022/12/12 13:03:06;;;;;;;28.20;17.00;;;-0.30;1.00;;;;;;4969968;28;20208;-77
2022/12/12 13:05:51;;;;;;;31.30;17.43;;;-0.50;1.00;;;;;;4971092;28;20190;-77
2022/12/12 13:08:23;;;;;;;28.87;17.30;;;-0.30;1.00;;;;;;4973201;28;20180;-78